sensor_id;sensor_type;location;lat;lon;timestamp;P1;durP1;ratioP1;P2;durP2;ratioP2
22248;SDS011;67538;52.180;5.646;2024-02-04T00:02:09;28.03;;;15.27;;
22248;SDS011;67538;52.180;5.646;2024-02-04T00:04:39;26.07;;;13.33;;
22248;SDS011;67538;52.180;5.646;2024-02-04T00:07:06;19.73;;;11.37;;
22248;SDS011;67538;52.180;5.646;2024-02-04T00:09:33;23.63;;;12.23;;
22248;SDS011;67538;52.180;5.646;2024-02-04T00:12:00;26.83;;;11.73;;
22248;SDS011;67538;52.180;5.646;2024-02-04T00:14:29;22.37;;;11.13;;
22248;SDS011;67538;52.180;5.646;2024-02-04T00:16:56;20.07;;;9.70;;
22248;SDS011;67538;52.180;5.646;2024-02-04T00:19:25;21.03;;;9.83;;
22248;SDS011;67538;52.180;5.646;2024-02-04T00:21:52;14.53;;;8.70;;
22248;SDS011;67538;52.180;5.646;2024-02-04T00:24:20;17.23;;;8.50;;
22248;SDS011;67538;52.180;5.646;2024-02-04T00:26:47;14.57;;;7.20;;
22248;SDS011;67538;52.180;5.646;2024-02-04T00:29:14;14.50;;;7.43;;
22248;SDS011;67538;52.180;5.646;2024-02-04T00:31:41;16.23;;;6.73;;
22248;SDS011;67538;52.180;5.646;2024-02-04T00:34:08;13.53;;;6.80;;
22248;SDS011;67538;52.180;5.646;2024-02-04T00:36:37;14.87;;;6.67;;
22248;SDS011;67538;52.180;5.646;2024-02-04T00:39:04;11.37;;;6.30;;
22248;SDS011;67538;52.180;5.646;2024-02-04T00:41:32;12.07;;;6.57;;
22248;SDS011;67538;52.180;5.646;2024-02-04T00:43:59;9.40;;;6.20;;
22248;SDS011;67538;52.180;5.646;2024-02-04T00:46:27;9.87;;;6.30;;
22248;SDS011;67538;52.180;5.646;2024-02-04T00:48:54;13.43;;;6.70;;
22248;SDS011;67538;52.180;5.646;2024-02-04T00:51:21;15.67;;;6.57;;
22248;SDS011;67538;52.180;5.646;2024-02-04T00:53:50;14.00;;;6.90;;
22248;SDS011;67538;52.180;5.646;2024-02-04T00:56:18;13.37;;;7.23;;
22248;SDS011;67538;52.180;5.646;2024-02-04T00:58:45;13.63;;;7.50;;
22248;SDS011;67538;52.180;5.646;2024-02-04T01:01:12;16.30;;;8.27;;
22248;SDS011;67538;52.180;5.646;2024-02-04T01:03:39;20.13;;;8.60;;
22248;SDS011;67538;52.180;5.646;2024-02-04T01:06:06;14.00;;;8.37;;
22248;SDS011;67538;52.180;5.646;2024-02-04T01:08:33;12.90;;;8.40;;
22248;SDS011;67538;52.180;5.646;2024-02-04T01:11:04;18.43;;;9.43;;
22248;SDS011;67538;52.180;5.646;2024-02-04T01:13:31;16.47;;;9.23;;
22248;SDS011;67538;52.180;5.646;2024-02-04T01:15:58;17.27;;;10.67;;
22248;SDS011;67538;52.180;5.646;2024-02-04T01:18:25;20.13;;;11.40;;
22248;SDS011;67538;52.180;5.646;2024-02-04T01:20:53;25.13;;;12.67;;
22248;SDS011;67538;52.180;5.646;2024-02-04T01:23:20;29.50;;;12.87;;
22248;SDS011;67538;52.180;5.646;2024-02-04T01:25:47;33.13;;;14.37;;
22248;SDS011;67538;52.180;5.646;2024-02-04T01:28:15;28.97;;;14.33;;
22248;SDS011;67538;52.180;5.646;2024-02-04T01:30:42;35.97;;;14.87;;
22248;SDS011;67538;52.180;5.646;2024-02-04T01:33:09;33.60;;;14.60;;
22248;SDS011;67538;52.180;5.646;2024-02-04T01:35:36;32.47;;;15.17;;
22248;SDS011;67538;52.180;5.646;2024-02-04T01:38:03;35.03;;;15.97;;
22248;SDS011;67538;52.180;5.646;2024-02-04T01:40:30;32.03;;;15.83;;
22248;SDS011;67538;52.180;5.646;2024-02-04T01:42:57;34.80;;;15.70;;
22248;SDS011;67538;52.180;5.646;2024-02-04T01:45:26;37.77;;;14.90;;
22248;SDS011;67538;52.180;5.646;2024-02-04T01:47:53;32.03;;;13.30;;
22248;SDS011;67538;52.180;5.646;2024-02-04T01:50:20;36.80;;;14.03;;
22248;SDS011;67538;52.180;5.646;2024-02-04T01:52:48;35.67;;;12.63;;
22248;SDS011;67538;52.180;5.646;2024-02-04T01:55:16;32.13;;;12.53;;
22248;SDS011;67538;52.180;5.646;2024-02-04T01:57:44;35.07;;;11.73;;
22248;SDS011;67538;52.180;5.646;2024-02-04T02:00:11;29.90;;;12.00;;
22248;SDS011;67538;52.180;5.646;2024-02-04T02:02:41;38.67;;;12.90;;
22248;SDS011;67538;52.180;5.646;2024-02-04T02:05:09;36.20;;;13.57;;
22248;SDS011;67538;52.180;5.646;2024-02-04T02:07:36;34.63;;;12.03;;
22248;SDS011;67538;52.180;5.646;2024-02-04T02:10:03;32.20;;;13.10;;
22248;SDS011;67538;52.180;5.646;2024-02-04T02:12:34;34.10;;;14.30;;
22248;SDS011;67538;52.180;5.646;2024-02-04T02:15:07;35.63;;;13.37;;
22248;SDS011;67538;52.180;5.646;2024-02-04T02:17:44;36.03;;;11.97;;
22248;SDS011;67538;52.180;5.646;2024-02-04T02:20:17;27.53;;;11.43;;
22248;SDS011;67538;52.180;5.646;2024-02-04T02:22:48;34.43;;;10.73;;
22248;SDS011;67538;52.180;5.646;2024-02-04T02:25:19;29.17;;;10.90;;
22248;SDS011;67538;52.180;5.646;2024-02-04T02:27:47;29.30;;;10.63;;
22248;SDS011;67538;52.180;5.646;2024-02-04T02:30:15;29.33;;;11.37;;
22248;SDS011;67538;52.180;5.646;2024-02-04T02:32:43;28.43;;;10.50;;
22248;SDS011;67538;52.180;5.646;2024-02-04T02:35:11;27.30;;;10.87;;
22248;SDS011;67538;52.180;5.646;2024-02-04T02:37:40;26.43;;;8.60;;
22248;SDS011;67538;52.180;5.646;2024-02-04T02:40:12;24.10;;;9.07;;
22248;SDS011;67538;52.180;5.646;2024-02-04T02:42:47;31.00;;;9.27;;
22248;SDS011;67538;52.180;5.646;2024-02-04T02:45:15;29.73;;;8.37;;
22248;SDS011;67538;52.180;5.646;2024-02-04T02:47:43;23.20;;;7.97;;
22248;SDS011;67538;52.180;5.646;2024-02-04T02:50:12;21.30;;;8.30;;
22248;SDS011;67538;52.180;5.646;2024-02-04T02:52:40;16.17;;;6.97;;
22248;SDS011;67538;52.180;5.646;2024-02-04T02:55:07;23.23;;;6.90;;
22248;SDS011;67538;52.180;5.646;2024-02-04T02:57:34;15.93;;;7.07;;
22248;SDS011;67538;52.180;5.646;2024-02-04T03:00:03;21.57;;;7.53;;
22248;SDS011;67538;52.180;5.646;2024-02-04T03:02:31;19.43;;;7.17;;
22248;SDS011;67538;52.180;5.646;2024-02-04T03:04:58;24.67;;;8.03;;
22248;SDS011;67538;52.180;5.646;2024-02-04T03:07:25;19.17;;;7.73;;
22248;SDS011;67538;52.180;5.646;2024-02-04T03:09:53;25.00;;;7.87;;
22248;SDS011;67538;52.180;5.646;2024-02-04T03:12:20;21.57;;;8.40;;
22248;SDS011;67538;52.180;5.646;2024-02-04T03:14:47;23.57;;;8.50;;
22248;SDS011;67538;52.180;5.646;2024-02-04T03:17:15;19.87;;;8.53;;
22248;SDS011;67538;52.180;5.646;2024-02-04T03:19:45;25.57;;;9.00;;
22248;SDS011;67538;52.180;5.646;2024-02-04T03:22:13;29.23;;;8.73;;
22248;SDS011;67538;52.180;5.646;2024-02-04T03:24:41;18.53;;;8.93;;
22248;SDS011;67538;52.180;5.646;2024-02-04T03:27:08;23.33;;;9.87;;
22248;SDS011;67538;52.180;5.646;2024-02-04T03:29:35;23.77;;;9.70;;
22248;SDS011;67538;52.180;5.646;2024-02-04T03:32:02;24.60;;;9.43;;
22248;SDS011;67538;52.180;5.646;2024-02-04T03:34:31;20.97;;;10.27;;
22248;SDS011;67538;52.180;5.646;2024-02-04T03:36:58;26.23;;;9.80;;
22248;SDS011;67538;52.180;5.646;2024-02-04T03:39:25;30.50;;;9.73;;
22248;SDS011;67538;52.180;5.646;2024-02-04T03:41:52;30.43;;;9.97;;
22248;SDS011;67538;52.180;5.646;2024-02-04T03:44:19;32.97;;;10.60;;
22248;SDS011;67538;52.180;5.646;2024-02-04T03:46:47;29.00;;;10.70;;
22248;SDS011;67538;52.180;5.646;2024-02-04T03:49:15;35.07;;;10.83;;
22248;SDS011;67538;52.180;5.646;2024-02-04T03:51:44;26.70;;;11.73;;
22248;SDS011;67538;52.180;5.646;2024-02-04T03:54:11;24.77;;;11.67;;
22248;SDS011;67538;52.180;5.646;2024-02-04T03:56:38;43.23;;;12.83;;
22248;SDS011;67538;52.180;5.646;2024-02-04T03:59:05;25.20;;;12.10;;
22248;SDS011;67538;52.180;5.646;2024-02-04T04:01:36;28.03;;;11.37;;
22248;SDS011;67538;52.180;5.646;2024-02-04T04:04:03;25.17;;;10.77;;
22248;SDS011;67538;52.180;5.646;2024-02-04T04:06:30;33.77;;;11.23;;
22248;SDS011;67538;52.180;5.646;2024-02-04T04:08:58;25.47;;;9.13;;
22248;SDS011;67538;52.180;5.646;2024-02-04T04:11:26;27.67;;;9.73;;
22248;SDS011;67538;52.180;5.646;2024-02-04T04:13:53;26.00;;;8.57;;
22248;SDS011;67538;52.180;5.646;2024-02-04T04:16:20;25.53;;;8.63;;
22248;SDS011;67538;52.180;5.646;2024-02-04T04:18:48;26.40;;;7.93;;
22248;SDS011;67538;52.180;5.646;2024-02-04T04:21:15;21.10;;;7.93;;
22248;SDS011;67538;52.180;5.646;2024-02-04T04:23:42;27.63;;;8.20;;
22248;SDS011;67538;52.180;5.646;2024-02-04T04:26:11;24.27;;;6.53;;
22248;SDS011;67538;52.180;5.646;2024-02-04T04:28:38;20.30;;;7.43;;
22248;SDS011;67538;52.180;5.646;2024-02-04T04:31:05;17.27;;;6.40;;
22248;SDS011;67538;52.180;5.646;2024-02-04T04:33:32;24.00;;;6.60;;
22248;SDS011;67538;52.180;5.646;2024-02-04T04:35:59;25.73;;;5.97;;
22248;SDS011;67538;52.180;5.646;2024-02-04T04:38:26;19.63;;;6.00;;
22248;SDS011;67538;52.180;5.646;2024-02-04T04:40:54;17.37;;;5.53;;
22248;SDS011;67538;52.180;5.646;2024-02-04T04:43:22;21.00;;;5.27;;
22248;SDS011;67538;52.180;5.646;2024-02-04T04:45:49;20.97;;;5.40;;
22248;SDS011;67538;52.180;5.646;2024-02-04T04:48:16;22.13;;;5.50;;
22248;SDS011;67538;52.180;5.646;2024-02-04T04:50:43;15.27;;;4.43;;
22248;SDS011;67538;52.180;5.646;2024-02-04T04:53:10;19.13;;;5.23;;
22248;SDS011;67538;52.180;5.646;2024-02-04T04:55:37;14.57;;;5.40;;
22248;SDS011;67538;52.180;5.646;2024-02-04T04:58:04;17.37;;;5.00;;
22248;SDS011;67538;52.180;5.646;2024-02-04T05:00:33;12.30;;;4.63;;
22248;SDS011;67538;52.180;5.646;2024-02-04T05:03:00;15.17;;;5.50;;
22248;SDS011;67538;52.180;5.646;2024-02-04T05:05:27;29.47;;;6.30;;
22248;SDS011;67538;52.180;5.646;2024-02-04T05:07:54;26.93;;;6.07;;
22248;SDS011;67538;52.180;5.646;2024-02-04T05:10:21;19.27;;;6.90;;
22248;SDS011;67538;52.180;5.646;2024-02-04T05:12:48;21.27;;;6.00;;
22248;SDS011;67538;52.180;5.646;2024-02-04T05:15:16;14.17;;;5.77;;
22248;SDS011;67538;52.180;5.646;2024-02-04T05:17:45;23.03;;;6.50;;
22248;SDS011;67538;52.180;5.646;2024-02-04T05:20:12;21.87;;;6.80;;
22248;SDS011;67538;52.180;5.646;2024-02-04T05:22:39;26.10;;;6.43;;
22248;SDS011;67538;52.180;5.646;2024-02-04T05:25:06;20.70;;;6.33;;
22248;SDS011;67538;52.180;5.646;2024-02-04T05:27:34;17.47;;;6.10;;
22248;SDS011;67538;52.180;5.646;2024-02-04T05:30:02;18.00;;;5.40;;
22248;SDS011;67538;52.180;5.646;2024-02-04T05:32:30;16.07;;;5.70;;
22248;SDS011;67538;52.180;5.646;2024-02-04T05:34:59;24.07;;;6.87;;
22248;SDS011;67538;52.180;5.646;2024-02-04T05:37:26;19.23;;;5.80;;
22248;SDS011;67538;52.180;5.646;2024-02-04T05:39:53;15.30;;;5.73;;
22248;SDS011;67538;52.180;5.646;2024-02-04T05:42:20;17.93;;;6.10;;
22248;SDS011;67538;52.180;5.646;2024-02-04T05:44:47;16.70;;;6.13;;
22248;SDS011;67538;52.180;5.646;2024-02-04T05:47:14;18.00;;;6.13;;
22248;SDS011;67538;52.180;5.646;2024-02-04T05:49:41;19.77;;;5.90;;
22248;SDS011;67538;52.180;5.646;2024-02-04T05:52:10;22.17;;;5.83;;
22248;SDS011;67538;52.180;5.646;2024-02-04T05:54:38;21.27;;;6.37;;
22248;SDS011;67538;52.180;5.646;2024-02-04T05:57:05;19.97;;;6.00;;
22248;SDS011;67538;52.180;5.646;2024-02-04T05:59:32;21.23;;;6.23;;
22248;SDS011;67538;52.180;5.646;2024-02-04T06:01:59;25.33;;;6.30;;
22248;SDS011;67538;52.180;5.646;2024-02-04T06:04:26;20.27;;;6.20;;
22248;SDS011;67538;52.180;5.646;2024-02-04T06:06:54;20.43;;;5.70;;
22248;SDS011;67538;52.180;5.646;2024-02-04T06:09:22;16.00;;;5.50;;
22248;SDS011;67538;52.180;5.646;2024-02-04T06:11:49;17.87;;;5.63;;
22248;SDS011;67538;52.180;5.646;2024-02-04T06:14:16;19.93;;;6.40;;
22248;SDS011;67538;52.180;5.646;2024-02-04T06:16:43;21.97;;;6.60;;
22248;SDS011;67538;52.180;5.646;2024-02-04T06:19:10;19.17;;;6.73;;
22248;SDS011;67538;52.180;5.646;2024-02-04T06:21:38;19.10;;;6.90;;
22248;SDS011;67538;52.180;5.646;2024-02-04T06:24:05;22.67;;;6.30;;
22248;SDS011;67538;52.180;5.646;2024-02-04T06:26:36;21.57;;;6.13;;
22248;SDS011;67538;52.180;5.646;2024-02-04T06:29:04;22.57;;;6.20;;
22248;SDS011;67538;52.180;5.646;2024-02-04T06:31:31;22.77;;;6.83;;
22248;SDS011;67538;52.180;5.646;2024-02-04T06:33:58;21.13;;;6.60;;
22248;SDS011;67538;52.180;5.646;2024-02-04T06:36:26;15.43;;;5.80;;
22248;SDS011;67538;52.180;5.646;2024-02-04T06:38:53;18.97;;;6.40;;
22248;SDS011;67538;52.180;5.646;2024-02-04T06:41:20;22.20;;;6.50;;
22248;SDS011;67538;52.180;5.646;2024-02-04T06:43:49;28.40;;;6.40;;
22248;SDS011;67538;52.180;5.646;2024-02-04T06:46:23;20.00;;;6.27;;
22248;SDS011;67538;52.180;5.646;2024-02-04T06:48:51;19.40;;;6.33;;
22248;SDS011;67538;52.180;5.646;2024-02-04T06:51:18;18.87;;;6.90;;
22248;SDS011;67538;52.180;5.646;2024-02-04T06:53:45;22.37;;;6.37;;
22248;SDS011;67538;52.180;5.646;2024-02-04T06:56:13;21.67;;;6.00;;
22248;SDS011;67538;52.180;5.646;2024-02-04T06:58:40;28.70;;;7.10;;
22248;SDS011;67538;52.180;5.646;2024-02-04T07:01:09;20.93;;;6.97;;
22248;SDS011;67538;52.180;5.646;2024-02-04T07:03:37;22.33;;;7.23;;
22248;SDS011;67538;52.180;5.646;2024-02-04T07:06:05;25.27;;;7.87;;
22248;SDS011;67538;52.180;5.646;2024-02-04T07:08:32;24.47;;;8.23;;
22248;SDS011;67538;52.180;5.646;2024-02-04T07:10:59;18.70;;;8.23;;
22248;SDS011;67538;52.180;5.646;2024-02-04T07:13:27;20.27;;;8.17;;
22248;SDS011;67538;52.180;5.646;2024-02-04T07:15:54;24.63;;;9.50;;
22248;SDS011;67538;52.180;5.646;2024-02-04T07:18:23;31.17;;;10.47;;
22248;SDS011;67538;52.180;5.646;2024-02-04T07:20:50;22.50;;;9.80;;
22248;SDS011;67538;52.180;5.646;2024-02-04T07:23:17;26.33;;;10.33;;
22248;SDS011;67538;52.180;5.646;2024-02-04T07:25:44;20.60;;;10.47;;
22248;SDS011;67538;52.180;5.646;2024-02-04T07:28:11;25.60;;;9.37;;
22248;SDS011;67538;52.180;5.646;2024-02-04T07:30:38;18.73;;;9.23;;
22248;SDS011;67538;52.180;5.646;2024-02-04T07:33:05;25.87;;;9.50;;
22248;SDS011;67538;52.180;5.646;2024-02-04T07:35:34;17.87;;;8.50;;
22248;SDS011;67538;52.180;5.646;2024-02-04T07:38:01;22.67;;;9.40;;
22248;SDS011;67538;52.180;5.646;2024-02-04T07:40:28;18.83;;;10.07;;
22248;SDS011;67538;52.180;5.646;2024-02-04T07:42:56;20.37;;;9.50;;
22248;SDS011;67538;52.180;5.646;2024-02-04T07:45:23;21.10;;;9.10;;
22248;SDS011;67538;52.180;5.646;2024-02-04T07:47:50;27.47;;;11.43;;
22248;SDS011;67538;52.180;5.646;2024-02-04T07:50:17;28.70;;;11.83;;
22248;SDS011;67538;52.180;5.646;2024-02-04T07:52:46;26.90;;;11.73;;
22248;SDS011;67538;52.180;5.646;2024-02-04T07:55:13;24.77;;;13.20;;
22248;SDS011;67538;52.180;5.646;2024-02-04T07:57:40;26.27;;;12.10;;
22248;SDS011;67538;52.180;5.646;2024-02-04T08:00:07;32.33;;;13.40;;
22248;SDS011;67538;52.180;5.646;2024-02-04T08:02:35;27.20;;;12.73;;
22248;SDS011;67538;52.180;5.646;2024-02-04T08:05:03;30.67;;;12.53;;
22248;SDS011;67538;52.180;5.646;2024-02-04T08:07:31;21.23;;;11.57;;
22248;SDS011;67538;52.180;5.646;2024-02-04T08:09:59;20.73;;;11.83;;
22248;SDS011;67538;52.180;5.646;2024-02-04T08:12:26;27.13;;;11.00;;
22248;SDS011;67538;52.180;5.646;2024-02-04T08:14:53;23.07;;;11.03;;
22248;SDS011;67538;52.180;5.646;2024-02-04T08:17:20;25.73;;;10.80;;
22248;SDS011;67538;52.180;5.646;2024-02-04T08:19:47;26.47;;;10.83;;
22248;SDS011;67538;52.180;5.646;2024-02-04T08:22:14;22.47;;;10.87;;
22248;SDS011;67538;52.180;5.646;2024-02-04T08:24:43;18.80;;;10.20;;
22248;SDS011;67538;52.180;5.646;2024-02-04T08:27:11;14.73;;;8.10;;
22248;SDS011;67538;52.180;5.646;2024-02-04T08:29:41;18.47;;;8.07;;
22248;SDS011;67538;52.180;5.646;2024-02-04T08:32:08;24.80;;;9.50;;
22248;SDS011;67538;52.180;5.646;2024-02-04T08:34:35;20.83;;;8.90;;
22248;SDS011;67538;52.180;5.646;2024-02-04T08:37:02;18.20;;;7.83;;
22248;SDS011;67538;52.180;5.646;2024-02-04T08:39:29;14.10;;;7.43;;
22248;SDS011;67538;52.180;5.646;2024-02-04T08:41:56;14.93;;;6.73;;
22248;SDS011;67538;52.180;5.646;2024-02-04T08:44:25;15.47;;;6.77;;
22248;SDS011;67538;52.180;5.646;2024-02-04T08:46:52;15.13;;;6.00;;
22248;SDS011;67538;52.180;5.646;2024-02-04T08:49:20;15.43;;;6.07;;
22248;SDS011;67538;52.180;5.646;2024-02-04T08:51:47;14.47;;;5.47;;
22248;SDS011;67538;52.180;5.646;2024-02-04T08:54:14;9.47;;;5.23;;
22248;SDS011;67538;52.180;5.646;2024-02-04T08:56:42;12.87;;;4.50;;
22248;SDS011;67538;52.180;5.646;2024-02-04T08:59:09;9.50;;;4.90;;
22248;SDS011;67538;52.180;5.646;2024-02-04T09:01:38;14.23;;;4.60;;
22248;SDS011;67538;52.180;5.646;2024-02-04T09:04:05;8.90;;;4.40;;
22248;SDS011;67538;52.180;5.646;2024-02-04T09:06:32;5.97;;;3.67;;
22248;SDS011;67538;52.180;5.646;2024-02-04T09:08:59;10.93;;;3.93;;
22248;SDS011;67538;52.180;5.646;2024-02-04T09:11:26;12.77;;;4.20;;
22248;SDS011;67538;52.180;5.646;2024-02-04T09:13:53;7.03;;;3.90;;
22248;SDS011;67538;52.180;5.646;2024-02-04T09:16:20;11.63;;;4.60;;
22248;SDS011;67538;52.180;5.646;2024-02-04T09:18:48;13.83;;;5.27;;
22248;SDS011;67538;52.180;5.646;2024-02-04T09:21:15;10.33;;;5.20;;
22248;SDS011;67538;52.180;5.646;2024-02-04T09:23:42;13.87;;;5.80;;
22248;SDS011;67538;52.180;5.646;2024-02-04T09:26:10;12.67;;;5.97;;
22248;SDS011;67538;52.180;5.646;2024-02-04T09:28:37;22.87;;;6.13;;
22248;SDS011;67538;52.180;5.646;2024-02-04T09:31:04;18.30;;;6.40;;
22248;SDS011;67538;52.180;5.646;2024-02-04T09:33:33;15.83;;;7.10;;
22248;SDS011;67538;52.180;5.646;2024-02-04T09:36:04;13.57;;;5.50;;
22248;SDS011;67538;52.180;5.646;2024-02-04T09:38:31;11.63;;;6.00;;
22248;SDS011;67538;52.180;5.646;2024-02-04T09:41:00;14.33;;;6.50;;
22248;SDS011;67538;52.180;5.646;2024-02-04T09:43:29;9.67;;;6.07;;
22248;SDS011;67538;52.180;5.646;2024-02-04T09:45:58;9.43;;;5.70;;
22248;SDS011;67538;52.180;5.646;2024-02-04T09:48:25;16.00;;;5.50;;
22248;SDS011;67538;52.180;5.646;2024-02-04T09:50:56;13.60;;;5.40;;
22248;SDS011;67538;52.180;5.646;2024-02-04T09:53:32;11.20;;;4.80;;
22248;SDS011;67538;52.180;5.646;2024-02-04T09:56:01;11.43;;;4.40;;
22248;SDS011;67538;52.180;5.646;2024-02-04T09:58:31;8.77;;;4.83;;
22248;SDS011;67538;52.180;5.646;2024-02-04T10:00:58;7.77;;;4.43;;
22248;SDS011;67538;52.180;5.646;2024-02-04T10:03:26;9.77;;;4.03;;
22248;SDS011;67538;52.180;5.646;2024-02-04T10:05:53;7.10;;;3.57;;
22248;SDS011;67538;52.180;5.646;2024-02-04T10:08:20;10.70;;;3.77;;
22248;SDS011;67538;52.180;5.646;2024-02-04T10:10:49;9.93;;;4.10;;
22248;SDS011;67538;52.180;5.646;2024-02-04T10:13:16;8.33;;;3.50;;
22248;SDS011;67538;52.180;5.646;2024-02-04T10:15:43;6.40;;;3.27;;
22248;SDS011;67538;52.180;5.646;2024-02-04T10:18:11;3.60;;;2.83;;
22248;SDS011;67538;52.180;5.646;2024-02-04T10:20:38;8.63;;;2.90;;
22248;SDS011;67538;52.180;5.646;2024-02-04T10:23:05;8.83;;;2.90;;
22248;SDS011;67538;52.180;5.646;2024-02-04T10:25:32;9.43;;;3.40;;
22248;SDS011;67538;52.180;5.646;2024-02-04T10:28:00;6.97;;;3.30;;
22248;SDS011;67538;52.180;5.646;2024-02-04T10:30:28;7.10;;;2.80;;
22248;SDS011;67538;52.180;5.646;2024-02-04T10:32:55;6.67;;;2.93;;
22248;SDS011;67538;52.180;5.646;2024-02-04T10:35:22;6.77;;;2.87;;
22248;SDS011;67538;52.180;5.646;2024-02-04T10:37:49;4.23;;;2.40;;
22248;SDS011;67538;52.180;5.646;2024-02-04T10:40:16;4.90;;;2.30;;
22248;SDS011;67538;52.180;5.646;2024-02-04T10:42:44;5.27;;;2.47;;
22248;SDS011;67538;52.180;5.646;2024-02-04T10:45:13;4.27;;;2.50;;
22248;SDS011;67538;52.180;5.646;2024-02-04T10:47:44;9.33;;;2.30;;
22248;SDS011;67538;52.180;5.646;2024-02-04T10:50:19;8.30;;;2.40;;
22248;SDS011;67538;52.180;5.646;2024-02-04T10:52:47;7.83;;;2.30;;
22248;SDS011;67538;52.180;5.646;2024-02-04T10:55:15;5.63;;;2.20;;
22248;SDS011;67538;52.180;5.646;2024-02-04T10:57:47;4.43;;;2.27;;
22248;SDS011;67538;52.180;5.646;2024-02-04T11:00:16;10.17;;;3.50;;
22248;SDS011;67538;52.180;5.646;2024-02-04T11:02:46;7.47;;;2.50;;
22248;SDS011;67538;52.180;5.646;2024-02-04T11:05:14;9.27;;;2.50;;
22248;SDS011;67538;52.180;5.646;2024-02-04T11:07:43;10.67;;;2.40;;
22248;SDS011;67538;52.180;5.646;2024-02-04T11:10:11;4.67;;;1.70;;
22248;SDS011;67538;52.180;5.646;2024-02-04T11:12:40;4.03;;;2.13;;
22248;SDS011;67538;52.180;5.646;2024-02-04T11:15:09;4.47;;;1.93;;
22248;SDS011;67538;52.180;5.646;2024-02-04T11:17:55;4.07;;;2.17;;
22248;SDS011;67538;52.180;5.646;2024-02-04T11:20:38;6.33;;;2.00;;
22248;SDS011;67538;52.180;5.646;2024-02-04T11:23:35;3.23;;;1.93;;
22248;SDS011;67538;52.180;5.646;2024-02-04T11:26:11;8.57;;;2.03;;
22248;SDS011;67538;52.180;5.646;2024-02-04T11:28:40;3.83;;;2.30;;
22248;SDS011;67538;52.180;5.646;2024-02-04T11:31:13;3.97;;;2.33;;
22248;SDS011;67538;52.180;5.646;2024-02-04T11:33:42;3.73;;;2.03;;
22248;SDS011;67538;52.180;5.646;2024-02-04T11:36:12;5.57;;;2.10;;
22248;SDS011;67538;52.180;5.646;2024-02-04T11:38:40;3.50;;;1.83;;
22248;SDS011;67538;52.180;5.646;2024-02-04T11:41:07;4.37;;;2.17;;
22248;SDS011;67538;52.180;5.646;2024-02-04T11:43:36;4.80;;;2.53;;
22248;SDS011;67538;52.180;5.646;2024-02-04T11:46:04;4.17;;;2.10;;
22248;SDS011;67538;52.180;5.646;2024-02-04T11:48:32;5.23;;;2.00;;
22248;SDS011;67538;52.180;5.646;2024-02-04T11:51:03;6.93;;;2.07;;
22248;SDS011;67538;52.180;5.646;2024-02-04T11:53:32;4.47;;;2.13;;
22248;SDS011;67538;52.180;5.646;2024-02-04T11:56:00;3.97;;;2.00;;
22248;SDS011;67538;52.180;5.646;2024-02-04T11:58:28;3.40;;;2.10;;
22248;SDS011;67538;52.180;5.646;2024-02-04T12:00:56;6.27;;;2.60;;
22248;SDS011;67538;52.180;5.646;2024-02-04T12:03:30;4.80;;;2.10;;
22248;SDS011;67538;52.180;5.646;2024-02-04T12:05:58;4.73;;;2.60;;
22248;SDS011;67538;52.180;5.646;2024-02-04T12:08:28;6.20;;;3.10;;
22248;SDS011;67538;52.180;5.646;2024-02-04T12:10:56;3.57;;;2.73;;
22248;SDS011;67538;52.180;5.646;2024-02-04T12:13:24;8.23;;;2.63;;
22248;SDS011;67538;52.180;5.646;2024-02-04T12:15:51;8.07;;;3.07;;
22248;SDS011;67538;52.180;5.646;2024-02-04T12:18:18;10.40;;;2.93;;
22248;SDS011;67538;52.180;5.646;2024-02-04T12:20:46;5.17;;;3.30;;
22248;SDS011;67538;52.180;5.646;2024-02-04T12:23:14;14.43;;;4.70;;
22248;SDS011;67538;52.180;5.646;2024-02-04T12:25:43;7.70;;;3.40;;
22248;SDS011;67538;52.180;5.646;2024-02-04T12:28:10;13.57;;;3.67;;
22248;SDS011;67538;52.180;5.646;2024-02-04T12:30:37;11.10;;;3.63;;
22248;SDS011;67538;52.180;5.646;2024-02-04T12:33:05;13.20;;;3.53;;
22248;SDS011;67538;52.180;5.646;2024-02-04T12:35:33;12.17;;;4.07;;
22248;SDS011;67538;52.180;5.646;2024-02-04T12:38:01;9.70;;;3.63;;
22248;SDS011;67538;52.180;5.646;2024-02-04T12:40:29;13.40;;;4.73;;
22248;SDS011;67538;52.180;5.646;2024-02-04T12:42:58;10.50;;;4.10;;
22248;SDS011;67538;52.180;5.646;2024-02-04T12:45:27;15.50;;;4.00;;
22248;SDS011;67538;52.180;5.646;2024-02-04T12:47:55;12.70;;;4.20;;
22248;SDS011;67538;52.180;5.646;2024-02-04T12:50:23;14.43;;;3.90;;
22248;SDS011;67538;52.180;5.646;2024-02-04T12:53:01;10.57;;;3.90;;
22248;SDS011;67538;52.180;5.646;2024-02-04T12:55:29;12.20;;;4.20;;
22248;SDS011;67538;52.180;5.646;2024-02-04T12:58:05;9.77;;;3.30;;
22248;SDS011;67538;52.180;5.646;2024-02-04T13:00:33;13.37;;;4.00;;
22248;SDS011;67538;52.180;5.646;2024-02-04T13:03:01;15.17;;;4.03;;
22248;SDS011;67538;52.180;5.646;2024-02-04T13:05:28;12.63;;;3.80;;
22248;SDS011;67538;52.180;5.646;2024-02-04T13:07:56;11.63;;;3.60;;
22248;SDS011;67538;52.180;5.646;2024-02-04T13:10:27;8.70;;;3.37;;
22248;SDS011;67538;52.180;5.646;2024-02-04T13:12:59;8.03;;;3.30;;
22248;SDS011;67538;52.180;5.646;2024-02-04T13:15:36;11.67;;;4.00;;
22248;SDS011;67538;52.180;5.646;2024-02-04T13:18:04;13.03;;;3.93;;
22248;SDS011;67538;52.180;5.646;2024-02-04T13:20:32;12.40;;;3.53;;
22248;SDS011;67538;52.180;5.646;2024-02-04T13:22:59;9.70;;;3.60;;
22248;SDS011;67538;52.180;5.646;2024-02-04T13:25:30;8.60;;;3.67;;
22248;SDS011;67538;52.180;5.646;2024-02-04T13:27:57;13.03;;;3.57;;
22248;SDS011;67538;52.180;5.646;2024-02-04T13:30:25;12.63;;;3.90;;
22248;SDS011;67538;52.180;5.646;2024-02-04T13:32:52;12.10;;;4.40;;
22248;SDS011;67538;52.180;5.646;2024-02-04T13:35:19;11.93;;;3.67;;
22248;SDS011;67538;52.180;5.646;2024-02-04T13:37:47;10.90;;;3.70;;
22248;SDS011;67538;52.180;5.646;2024-02-04T13:40:16;13.23;;;3.77;;
22248;SDS011;67538;52.180;5.646;2024-02-04T13:42:44;10.30;;;3.43;;
22248;SDS011;67538;52.180;5.646;2024-02-04T13:45:11;10.97;;;3.63;;
22248;SDS011;67538;52.180;5.646;2024-02-04T13:47:41;8.57;;;3.30;;
22248;SDS011;67538;52.180;5.646;2024-02-04T13:50:09;12.97;;;3.57;;
22248;SDS011;67538;52.180;5.646;2024-02-04T13:52:37;8.00;;;3.50;;
22248;SDS011;67538;52.180;5.646;2024-02-04T13:55:04;5.90;;;3.10;;
22248;SDS011;67538;52.180;5.646;2024-02-04T13:57:32;11.93;;;3.80;;
22248;SDS011;67538;52.180;5.646;2024-02-04T13:59:59;10.33;;;3.27;;
22248;SDS011;67538;52.180;5.646;2024-02-04T14:02:28;11.30;;;3.50;;
22248;SDS011;67538;52.180;5.646;2024-02-04T14:04:57;12.07;;;3.90;;
22248;SDS011;67538;52.180;5.646;2024-02-04T14:07:25;7.43;;;3.30;;
22248;SDS011;67538;52.180;5.646;2024-02-04T14:09:52;9.93;;;3.63;;
22248;SDS011;67538;52.180;5.646;2024-02-04T14:12:19;14.10;;;3.17;;
22248;SDS011;67538;52.180;5.646;2024-02-04T14:14:46;6.70;;;3.30;;
22248;SDS011;67538;52.180;5.646;2024-02-04T14:17:13;17.27;;;3.70;;
22248;SDS011;67538;52.180;5.646;2024-02-04T14:19:40;9.23;;;3.10;;
22248;SDS011;67538;52.180;5.646;2024-02-04T14:22:11;11.03;;;3.33;;
22248;SDS011;67538;52.180;5.646;2024-02-04T14:24:38;9.33;;;3.40;;
22248;SDS011;67538;52.180;5.646;2024-02-04T14:27:06;12.03;;;2.90;;
22248;SDS011;67538;52.180;5.646;2024-02-04T14:29:33;5.47;;;3.23;;
22248;SDS011;67538;52.180;5.646;2024-02-04T14:32:01;9.43;;;3.60;;
22248;SDS011;67538;52.180;5.646;2024-02-04T14:34:28;11.47;;;3.97;;
22248;SDS011;67538;52.180;5.646;2024-02-04T14:36:55;18.50;;;5.60;;
22248;SDS011;67538;52.180;5.646;2024-02-04T14:39:24;19.60;;;5.67;;
22248;SDS011;67538;52.180;5.646;2024-02-04T14:41:51;16.60;;;5.40;;